Terminal Aerodrome Forecast
Issued by NWS

Home | Current Version | Previous Version | Text Only | Print | Product List | Glossary On
Versions: 1 2 3 4 5 6 7 8 9 10 11 12 13 14 15 16 17
302
FTUS42 KFFC 250520
TAFFTY
TAF
KFTY 250520Z 2506/2606 VRB05KT P6SM SCT150 OVC250
     FM250900 30003KT 6SM BR SCT005 BKN010 BKN200
     FM251400 30006KT P6SM VCSH BKN030 BKN100 PROB30 2515/2521 4SM
      -TSRA BKN035CB
     FM252100 29007KT P6SM SCT030 BKN250
     FM260000 22005KT P6SM SCT250=

USA.gov is the U.S. government's official web portal to all federal, state and local government web resources and services.